createdAt,value
2022-07-29T00:02:25.626Z,79.17
2022-07-29T00:04:52.360Z,79.44
2022-07-29T00:07:19.111Z,80.39
2022-07-29T00:09:50.848Z,80.28
2022-07-29T00:12:25.634Z,80.68
2022-07-29T00:14:57.884Z,80.38
2022-07-29T00:17:25.392Z,79.96
2022-07-29T00:19:52.266Z,79.79
2022-07-29T00:22:19.592Z,80.49
2022-07-29T00:24:47.801Z,80.38
2022-07-29T00:27:14.356Z,80.78
2022-07-29T00:29:41.108Z,80.21
2022-07-29T00:32:07.973Z,80.06
2022-07-29T00:34:53.156Z,79.75
2022-07-29T00:37:19.785Z,79.99
2022-07-29T00:39:46.463Z,80.28
2022-07-29T00:42:13.281Z,80.14
2022-07-29T00:44:41.405Z,79.75
2022-07-29T00:47:09.571Z,80.00
2022-07-29T00:49:36.821Z,80.37
2022-07-29T00:52:04.914Z,80.37
2022-07-29T00:54:33.198Z,80.06
2022-07-29T00:57:00.430Z,80.24
2022-07-29T00:59:34.735Z,80.20
2022-07-29T01:02:02.558Z,79.74
2022-07-29T01:04:30.686Z,79.83
2022-07-29T01:06:57.665Z,81.05
2022-07-29T01:09:35.950Z,81.50
2022-07-29T01:12:14.007Z,82.21
2022-07-29T01:14:42.440Z,81.58
2022-07-29T01:17:18.893Z,81.12
2022-07-29T01:20:00.768Z,80.87
2022-07-29T01:22:43.590Z,81.60
2022-07-29T01:25:20.848Z,82.79
2022-07-29T01:28:14.727Z,82.82
2022-07-29T01:30:45.567Z,82.75
2022-07-29T01:33:36.327Z,82.18
2022-07-29T01:36:11.811Z,81.34
2022-07-29T01:38:42.544Z,81.31
2022-07-29T01:41:13.589Z,80.93
2022-07-29T01:43:53.060Z,82.09
2022-07-29T01:46:26.677Z,82.17
2022-07-29T01:49:12.309Z,80.22
2022-07-29T01:51:52.712Z,80.19
2022-07-29T01:54:27.262Z,80.63
2022-07-29T01:56:57.807Z,80.80
2022-07-29T01:59:25.839Z,80.23
2022-07-29T02:01:55.958Z,78.64
2022-07-29T02:04:29.002Z,78.84
2022-07-29T02:07:01.723Z,79.69
2022-07-29T02:09:30.549Z,79.65
2022-07-29T02:11:59.403Z,78.92
2022-07-29T02:14:29.734Z,79.97
2022-07-29T02:16:57.384Z,80.69
2022-07-29T02:19:28.078Z,81.22
2022-07-29T02:21:56.858Z,83.39
2022-07-29T02:24:25.616Z,82.22
2022-07-29T02:26:55.936Z,82.71
2022-07-29T02:29:24.516Z,81.06
2022-07-29T02:31:52.731Z,82.67
2022-07-29T02:34:21.827Z,82.02
2022-07-29T02:36:50.604Z,82.96
2022-07-29T02:39:19.699Z,83.03
2022-07-29T02:41:52.851Z,84.26
2022-07-29T02:44:21.672Z,85.33
2022-07-29T02:47:05.213Z,83.21
2022-07-29T02:49:42.151Z,83.22
2022-07-29T02:52:23.856Z,83.79
2022-07-29T02:54:57.083Z,83.75
2022-07-29T02:57:32.884Z,83.63
2022-07-29T03:00:05.757Z,83.65
2022-07-29T03:02:37.585Z,84.05
2022-07-29T03:05:07.549Z,84.04
2022-07-29T03:07:37.345Z,83.54
2022-07-29T03:10:05.527Z,83.90
2022-07-29T03:12:38.419Z,83.99
2022-07-29T03:15:06.682Z,84.52
2022-07-29T03:17:34.079Z,85.01
2022-07-29T03:20:01.086Z,85.48
2022-07-29T03:22:28.195Z,84.87
2022-07-29T03:24:54.845Z,85.60
2022-07-29T03:27:21.916Z,85.98
2022-07-29T03:29:50.558Z,86.42
2022-07-29T03:32:17.453Z,87.54
2022-07-29T03:34:50.679Z,86.90
2022-07-29T03:37:17.344Z,87.30
2022-07-29T03:39:45.228Z,87.02
2022-07-29T03:42:14.314Z,87.12
2022-07-29T03:44:44.158Z,87.10
2022-07-29T03:47:14.491Z,88.13
2022-07-29T03:49:41.975Z,87.39
2022-07-29T03:52:09.070Z,87.17
2022-07-29T03:54:35.921Z,88.02
2022-07-29T03:57:04.566Z,86.75
2022-07-29T03:59:33.773Z,87.56
2022-07-29T04:02:03.295Z,87.59
2022-07-29T04:04:30.199Z,87.45
2022-07-29T04:06:56.844Z,87.52
2022-07-29T04:09:23.458Z,87.61
2022-07-29T04:12:01.773Z,88.11
2022-07-29T04:14:30.547Z,87.06
2022-07-29T04:16:57.127Z,87.37
2022-07-29T04:19:23.725Z,87.41
2022-07-29T04:21:50.516Z,87.13
2022-07-29T04:24:17.863Z,87.80
2022-07-29T04:26:46.901Z,88.08
2022-07-29T04:29:15.245Z,87.99
2022-07-29T04:31:42.574Z,86.63
2022-07-29T04:34:10.067Z,87.84
2022-07-29T04:36:36.814Z,87.01
2022-07-29T04:39:04.058Z,86.84
2022-07-29T04:41:33.168Z,86.83
2022-07-29T04:44:02.110Z,86.17
2022-07-29T04:46:29.117Z,86.14
2022-07-29T04:48:56.270Z,85.89
2022-07-29T04:51:23.125Z,85.10
2022-07-29T04:53:49.697Z,85.38
2022-07-29T04:56:16.301Z,84.99
2022-07-29T04:58:42.931Z,84.94
2022-07-29T05:01:09.607Z,84.94
2022-07-29T05:03:36.478Z,84.58
2022-07-29T05:06:03.121Z,84.40
2022-07-29T05:08:29.761Z,86.00
2022-07-29T05:10:56.455Z,85.19
2022-07-29T05:13:23.033Z,85.60
2022-07-29T05:15:49.906Z,84.92
2022-07-29T05:18:16.691Z,84.33
2022-07-29T05:20:43.265Z,83.95
2022-07-29T05:23:10.098Z,84.86
2022-07-29T05:25:42.002Z,83.51
2022-07-29T05:28:12.426Z,82.72
2022-07-29T05:30:39.741Z,81.05
2022-07-29T05:33:06.391Z,80.50
2022-07-29T05:35:33.477Z,80.38
2022-07-29T05:38:00.070Z,81.87
2022-07-29T05:40:26.766Z,82.01
2022-07-29T05:42:53.425Z,81.26
2022-07-29T05:45:20.067Z,80.18
2022-07-29T05:47:46.726Z,80.92
2022-07-29T05:50:13.571Z,81.34
2022-07-29T05:52:40.413Z,81.62
2022-07-29T05:55:07.335Z,80.49
2022-07-29T05:57:34.173Z,80.23
2022-07-29T06:00:00.808Z,78.71
2022-07-29T06:02:27.489Z,78.17
2022-07-29T06:04:54.875Z,80.20
2022-07-29T06:07:21.891Z,79.71
2022-07-29T06:09:48.741Z,78.95
2022-07-29T06:12:15.475Z,78.33
2022-07-29T06:14:42.159Z,79.39
2022-07-29T06:17:08.850Z,79.61
2022-07-29T06:19:36.408Z,80.14
2022-07-29T06:22:03.328Z,80.19
2022-07-29T06:24:29.939Z,80.38
2022-07-29T06:26:56.964Z,78.59
2022-07-29T06:29:23.621Z,78.67
2022-07-29T06:31:50.202Z,80.22
2022-07-29T06:34:17.463Z,79.37
2022-07-29T06:36:44.552Z,79.21
2022-07-29T06:39:12.829Z,79.96
2022-07-29T06:41:39.580Z,80.75
2022-07-29T06:44:06.191Z,78.17
2022-07-29T06:46:33.332Z,75.31
2022-07-29T06:49:02.539Z,75.71
2022-07-29T06:51:29.954Z,74.52
2022-07-29T06:54:02.226Z,76.30
2022-07-29T06:56:39.595Z,78.80
2022-07-29T06:59:10.418Z,77.22
2022-07-29T07:01:42.830Z,77.61
2022-07-29T07:04:10.279Z,77.48
2022-07-29T07:06:37.329Z,75.94
2022-07-29T07:09:04.574Z,74.49
2022-07-29T07:11:31.600Z,74.09
2022-07-29T07:14:03.114Z,72.60
2022-07-29T07:16:31.097Z,71.68
2022-07-29T07:18:57.726Z,69.34
2022-07-29T07:21:24.396Z,67.32
2022-07-29T07:23:51.015Z,68.32
2022-07-29T07:26:17.696Z,68.59
2022-07-29T07:28:44.358Z,68.71
2022-07-29T07:31:11.903Z,69.79
2022-07-29T07:33:38.566Z,69.12
2022-07-29T07:36:05.331Z,69.33
2022-07-29T07:38:31.932Z,68.99
2022-07-29T07:40:58.570Z,71.21
2022-07-29T07:43:25.151Z,69.86
2022-07-29T07:45:51.820Z,68.99
2022-07-29T07:50:45.198Z,68.20
2022-07-29T07:53:12.120Z,69.59
2022-07-29T07:56:09.783Z,67.25
2022-07-29T07:58:35.423Z,63.99
2022-07-29T08:01:02.055Z,66.02
2022-07-29T08:03:28.700Z,66.63
2022-07-29T08:05:55.715Z,66.45
2022-07-29T08:08:22.348Z,69.30
2022-07-29T08:10:55.677Z,66.56
2022-07-29T08:13:24.615Z,65.76
2022-07-29T08:16:12.537Z,65.95
2022-07-29T08:18:40.660Z,65.46
2022-07-29T08:21:07.524Z,66.97
2022-07-29T08:23:46.821Z,66.54
2022-07-29T08:26:15.693Z,64.84
2022-07-29T08:28:47.820Z,66.92
2022-07-29T08:31:15.402Z,63.96
2022-07-29T08:33:42.197Z,63.62
2022-07-29T08:36:08.967Z,61.63
2022-07-29T08:38:35.894Z,58.45
2022-07-29T08:41:02.912Z,59.98
2022-07-29T08:43:30.057Z,60.18
2022-07-29T08:45:56.774Z,59.86
2022-07-29T08:48:25.746Z,59.86
2022-07-29T08:50:57.151Z,60.47
2022-07-29T08:53:27.761Z,61.10
2022-07-29T08:55:55.391Z,59.12
2022-07-29T08:58:24.957Z,60.26
2022-07-29T09:00:58.104Z,59.13
2022-07-29T09:03:28.402Z,60.35
2022-07-29T09:05:55.583Z,59.17
2022-07-29T09:08:23.734Z,59.97
2022-07-29T09:10:50.958Z,59.48
2022-07-29T09:13:17.607Z,59.24
2022-07-29T09:15:45.431Z,56.78
2022-07-29T09:18:28.910Z,56.75
2022-07-29T09:21:16.147Z,58.68
2022-07-29T09:24:00.214Z,57.83
2022-07-29T09:26:31.834Z,57.68
2022-07-29T09:28:59.786Z,55.27
2022-07-29T09:31:38.499Z,53.49
2022-07-29T09:34:06.779Z,55.58
2022-07-29T09:36:41.506Z,54.08
2022-07-29T09:39:08.153Z,53.33
2022-07-29T09:41:50.533Z,54.97
2022-07-29T09:44:17.658Z,52.61
2022-07-29T09:47:08.229Z,55.04
2022-07-29T09:49:36.589Z,52.50
2022-07-29T09:52:09.132Z,50.35
2022-07-29T09:54:40.551Z,51.05
2022-07-29T09:57:13.462Z,50.88
2022-07-29T09:59:50.057Z,52.74
2022-07-29T10:02:22.277Z,52.48
2022-07-29T10:04:50.651Z,53.11
2022-07-29T10:07:17.420Z,52.00
2022-07-29T10:09:55.761Z,54.16
2022-07-29T10:12:22.778Z,52.72
2022-07-29T10:14:50.199Z,52.92
2022-07-29T10:17:18.346Z,52.22
2022-07-29T10:19:45.084Z,53.09
2022-07-29T10:22:12.423Z,55.59
2022-07-29T10:24:40.695Z,54.50
2022-07-29T10:27:09.558Z,53.34
2022-07-29T10:29:37.151Z,56.43
2022-07-29T10:32:09.850Z,53.08
2022-07-29T10:35:04.380Z,52.89
2022-07-29T10:37:58.471Z,51.40
2022-07-29T10:41:09.249Z,52.29
2022-07-29T10:43:43.757Z,51.01
2022-07-29T10:46:12.920Z,51.23
2022-07-29T10:49:08.739Z,47.85
2022-07-29T10:51:51.458Z,47.03
2022-07-29T10:54:52.095Z,48.81
2022-07-29T10:57:53.071Z,50.84
2022-07-29T11:00:16.863Z,50.16
2022-07-29T11:02:45.575Z,49.67
2022-07-29T11:05:15.571Z,48.41
2022-07-29T11:08:19.623Z,49.66
2022-07-29T11:10:49.168Z,49.26
2022-07-29T11:13:46.532Z,48.13
2022-07-29T11:16:16.144Z,47.90
2022-07-29T11:19:14.418Z,47.46
2022-07-29T11:21:53.799Z,49.97
2022-07-29T11:24:35.739Z,48.69
2022-07-29T11:30:06.138Z,46.71
2022-07-29T11:32:41.862Z,47.41
2022-07-29T11:35:17.061Z,48.22
2022-07-29T11:37:52.137Z,51.87
2022-07-29T11:40:21.353Z,50.94
2022-07-29T11:42:50.144Z,49.15
2022-07-29T11:45:42.786Z,51.08
2022-07-29T11:48:31.399Z,49.09
2022-07-29T11:51:00.712Z,49.14
2022-07-29T11:53:28.906Z,49.62
2022-07-29T11:56:00.334Z,52.41
2022-07-29T11:58:28.407Z,50.01
2022-07-29T12:00:56.455Z,51.94
2022-07-29T12:03:35.225Z,51.47
2022-07-29T12:06:04.592Z,50.36
2022-07-29T12:07:03.783Z,45.40
2022-07-29T12:08:43.519Z,51.57
2022-07-29T12:11:22.488Z,52.28
2022-07-29T12:13:53.731Z,52.76
2022-07-29T12:16:25.375Z,52.57
2022-07-29T12:19:00.708Z,53.81
2022-07-29T12:21:30.209Z,54.99
2022-07-29T12:24:03.409Z,55.01
2022-07-29T12:26:34.071Z,53.57
2022-07-29T12:29:02.363Z,54.88
2022-07-29T12:31:42.251Z,55.32
2022-07-29T12:34:16.163Z,57.66
2022-07-29T12:36:43.921Z,57.94
2022-07-29T12:39:12.490Z,56.54
2022-07-29T12:41:39.925Z,56.27
2022-07-29T12:44:06.588Z,59.77
2022-07-29T12:46:33.292Z,59.95
2022-07-29T12:49:00.068Z,57.98
2022-07-29T12:51:34.596Z,58.38
2022-07-29T12:54:04.251Z,59.95
2022-07-29T12:56:42.666Z,61.23
2022-07-29T12:59:14.573Z,61.85
2022-07-29T13:01:41.309Z,61.36
2022-07-29T13:04:08.067Z,60.86
2022-07-29T13:06:50.849Z,63.79
2022-07-29T13:09:20.500Z,63.74
2022-07-29T13:11:53.908Z,64.37
2022-07-29T13:14:35.504Z,63.92
2022-07-29T13:17:03.928Z,66.38
2022-07-29T13:19:44.830Z,64.67
2022-07-29T13:22:16.942Z,64.28
2022-07-29T13:24:54.394Z,63.21
2022-07-29T13:27:30.098Z,63.44
2022-07-29T13:29:58.802Z,65.25
2022-07-29T13:32:27.747Z,65.17
2022-07-29T13:34:57.377Z,65.00
2022-07-29T13:37:24.049Z,66.20
2022-07-29T13:39:53.017Z,64.61
2022-07-29T13:42:20.737Z,65.86
2022-07-29T13:44:49.702Z,68.35
2022-07-29T13:47:17.202Z,68.83
2022-07-29T13:49:43.912Z,69.52
2022-07-29T13:52:10.770Z,70.21
2022-07-29T13:54:42.103Z,68.69
2022-07-29T13:57:12.003Z,69.83
2022-07-29T13:59:40.142Z,68.37
2022-07-29T14:02:07.113Z,67.74
2022-07-29T14:04:34.565Z,69.88
2022-07-29T14:07:03.565Z,68.35
2022-07-29T14:09:41.197Z,66.38
2022-07-29T14:12:09.392Z,65.58
2022-07-29T14:14:37.604Z,61.60
2022-07-29T14:17:07.543Z,63.92
2022-07-29T14:19:36.728Z,60.88
2022-07-29T14:22:08.545Z,61.86
2022-07-29T14:24:37.474Z,61.79
2022-07-29T14:27:05.574Z,61.40
2022-07-29T14:29:37.636Z,60.58
2022-07-29T14:32:07.340Z,58.39
2022-07-29T14:34:34.712Z,60.14
2022-07-29T14:37:01.711Z,60.14
2022-07-29T14:39:32.005Z,59.07
2022-07-29T14:41:59.400Z,56.23
2022-07-29T14:44:32.064Z,58.19
2022-07-29T14:47:00.679Z,57.34
2022-07-29T14:49:30.289Z,58.97
2022-07-29T14:51:57.493Z,58.07
2022-07-29T14:54:24.283Z,58.09
2022-07-29T14:56:51.903Z,59.79
2022-07-29T14:59:18.599Z,59.43
2022-07-29T15:01:45.328Z,58.09
2022-07-29T15:04:11.967Z,60.26
2022-07-29T15:06:38.978Z,58.18
2022-07-29T15:09:05.747Z,59.07
2022-07-29T15:11:38.255Z,59.91
2022-07-29T15:14:05.782Z,58.83
2022-07-29T15:16:32.717Z,57.83
2022-07-29T15:19:01.185Z,58.34
2022-07-29T15:21:28.539Z,57.85
2022-07-29T15:23:55.344Z,56.09
2022-07-29T15:26:22.122Z,55.13
2022-07-29T15:28:49.125Z,56.59
2022-07-29T15:31:16.058Z,54.60
2022-07-29T15:33:42.820Z,53.22
2022-07-29T15:36:09.757Z,51.42
2022-07-29T15:38:37.765Z,46.29
2022-07-29T15:41:09.151Z,46.36
2022-07-29T15:43:36.264Z,43.09
2022-07-29T15:46:21.540Z,38.46
2022-07-29T15:48:48.460Z,36.19
2022-07-29T15:51:15.367Z,31.98
2022-07-29T15:53:42.311Z,31.86
2022-07-29T15:56:08.989Z,33.18
2022-07-29T15:58:35.623Z,33.75
2022-07-29T16:01:02.372Z,31.41
2022-07-29T16:03:30.125Z,34.37
2022-07-29T16:05:57.322Z,37.90
2022-07-29T16:08:23.968Z,40.81
2022-07-29T16:10:50.707Z,44.43
2022-07-29T16:13:18.820Z,49.03
2022-07-29T16:15:46.102Z,47.82
2022-07-29T16:18:30.025Z,47.38
2022-07-29T16:20:57.136Z,46.32
2022-07-29T16:23:24.797Z,47.29
2022-07-29T16:26:00.533Z,49.70
2022-07-29T16:28:28.772Z,52.56
2022-07-29T16:30:55.701Z,53.85
2022-07-29T16:33:22.530Z,55.25
2022-07-29T16:35:49.960Z,54.60
2022-07-29T16:38:16.619Z,52.97
2022-07-29T16:40:43.651Z,53.05
2022-07-29T16:43:10.586Z,55.39
2022-07-29T16:45:46.026Z,56.78
2022-07-29T16:48:18.800Z,55.75
2022-07-29T16:50:45.996Z,58.22
2022-07-29T16:53:12.617Z,58.85
2022-07-29T16:55:42.035Z,58.79
2022-07-29T16:58:09.662Z,57.91
2022-07-29T17:00:36.702Z,58.17
2022-07-29T17:03:03.645Z,57.37
2022-07-29T17:05:30.297Z,58.06
2022-07-29T17:08:16.993Z,57.47
2022-07-29T17:10:43.940Z,58.50
2022-07-29T17:13:10.963Z,58.94
2022-07-29T17:15:37.724Z,58.78
2022-07-29T17:18:12.748Z,58.86
2022-07-29T17:20:41.449Z,59.60
2022-07-29T17:23:08.185Z,59.87
2022-07-29T17:25:34.887Z,61.16
2022-07-29T17:28:01.657Z,61.08
2022-07-29T17:30:29.390Z,61.23
2022-07-29T17:32:56.305Z,62.31
2022-07-29T17:35:41.281Z,60.98
2022-07-29T17:38:08.156Z,61.15
2022-07-29T17:40:34.759Z,60.31
2022-07-29T17:43:01.366Z,59.27
2022-07-29T17:45:49.882Z,56.08
2022-07-29T17:48:14.638Z,54.80
2022-07-29T17:50:41.291Z,56.26
2022-07-29T17:53:15.700Z,55.96
2022-07-29T17:55:45.054Z,58.50
2022-07-29T17:58:11.962Z,59.83
2022-07-29T18:00:38.668Z,60.82
2022-07-29T18:03:05.375Z,61.55
2022-07-29T18:05:32.053Z,61.00
2022-07-29T18:07:59.002Z,61.42
2022-07-29T18:10:25.627Z,63.03
2022-07-29T18:12:52.476Z,63.64
2022-07-29T18:17:57.411Z,63.52
2022-07-29T18:20:28.417Z,65.40
2022-07-29T18:22:55.265Z,65.49
2022-07-29T18:25:22.325Z,67.10
2022-07-29T18:27:48.905Z,66.02
2022-07-29T18:30:16.172Z,67.01
2022-07-29T18:32:59.228Z,68.45
2022-07-29T18:35:31.002Z,69.58
2022-07-29T18:38:01.917Z,70.42
2022-07-29T18:40:29.779Z,70.54
2022-07-29T18:42:56.951Z,71.21
2022-07-29T18:45:28.211Z,70.94
2022-07-29T18:47:56.693Z,71.26
2022-07-29T18:50:28.871Z,71.69
2022-07-29T18:52:58.538Z,71.43
2022-07-29T18:55:26.279Z,71.44
2022-07-29T18:57:53.703Z,70.96
2022-07-29T19:00:23.958Z,71.07
2022-07-29T19:02:50.915Z,71.24
2022-07-29T19:05:17.595Z,71.18
2022-07-29T19:07:44.157Z,71.00
2022-07-29T19:10:11.326Z,71.04
2022-07-29T19:12:38.027Z,70.68
2022-07-29T19:15:05.046Z,71.56
2022-07-29T19:17:31.789Z,71.75
2022-07-29T19:19:58.453Z,72.36
2022-07-29T19:22:25.177Z,71.83
2022-07-29T19:24:51.975Z,72.63
2022-07-29T19:27:18.966Z,73.27
2022-07-29T19:29:45.947Z,72.95
2022-07-29T19:32:13.603Z,73.70
2022-07-29T19:35:10.675Z,73.88
2022-07-29T19:37:37.607Z,74.41
2022-07-29T19:40:05.751Z,74.62
2022-07-29T19:42:32.530Z,73.68
2022-07-29T19:44:59.201Z,74.41
2022-07-29T19:47:25.873Z,74.40
2022-07-29T19:49:52.442Z,75.13
2022-07-29T19:52:19.118Z,75.44
2022-07-29T19:54:45.731Z,75.40
2022-07-29T19:57:12.350Z,75.95
2022-07-29T19:59:38.985Z,75.43
2022-07-29T20:02:05.936Z,76.62
2022-07-29T20:04:32.562Z,76.69
2022-07-29T20:07:01.845Z,76.99
2022-07-29T20:09:28.909Z,76.89
2022-07-29T20:11:55.754Z,75.69
2022-07-29T20:14:22.885Z,75.80
2022-07-29T20:16:50.539Z,76.47
2022-07-29T20:19:17.519Z,76.25
2022-07-29T20:21:44.435Z,76.31
2022-07-29T20:24:11.772Z,76.81
2022-07-29T20:26:38.561Z,76.51
2022-07-29T20:29:05.423Z,76.84
2022-07-29T20:31:32.838Z,76.75
2022-07-29T20:34:00.742Z,76.92
2022-07-29T20:36:28.185Z,76.89
2022-07-29T20:38:56.014Z,77.14
2022-07-29T20:41:23.085Z,77.50
2022-07-29T20:43:52.881Z,77.66
2022-07-29T20:46:19.612Z,78.00
2022-07-29T20:48:47.202Z,77.66
2022-07-29T20:51:14.536Z,77.85
2022-07-29T20:53:41.806Z,77.80
2022-07-29T20:56:08.627Z,78.44
2022-07-29T20:58:36.373Z,78.78
2022-07-29T21:01:04.282Z,78.70
2022-07-29T21:03:31.381Z,78.83
2022-07-29T21:05:59.022Z,78.69
2022-07-29T21:08:26.681Z,79.21
2022-07-29T21:10:53.852Z,79.38
2022-07-29T21:13:23.230Z,79.19
2022-07-29T21:15:51.743Z,79.94
2022-07-29T21:18:32.858Z,80.11
2022-07-29T21:21:04.707Z,80.38
2022-07-29T21:23:31.820Z,80.07
2022-07-29T21:25:58.731Z,80.30
2022-07-29T21:28:29.411Z,80.62
2022-07-29T21:31:01.085Z,79.94
2022-07-29T21:33:29.984Z,80.45
2022-07-29T21:36:26.625Z,80.35
2022-07-29T21:38:44.080Z,80.41
2022-07-29T21:41:12.700Z,80.57
2022-07-29T21:43:41.913Z,80.78
2022-07-29T21:46:09.382Z,81.05
2022-07-29T21:48:36.038Z,81.02
2022-07-29T21:51:02.700Z,81.16
2022-07-29T21:53:29.339Z,80.77
2022-07-29T21:55:57.486Z,80.73
2022-07-29T21:58:24.822Z,81.37
2022-07-29T22:00:52.303Z,81.28
2022-07-29T22:03:18.959Z,81.75
2022-07-29T22:05:45.812Z,80.90
2022-07-29T22:08:13.587Z,81.55
2022-07-29T22:10:40.637Z,82.22
2022-07-29T22:13:07.420Z,82.03
2022-07-29T22:15:34.055Z,82.19
2022-07-29T22:18:00.764Z,81.86
2022-07-29T22:20:27.939Z,81.64
2022-07-29T22:22:55.158Z,82.38
2022-07-29T22:25:21.915Z,82.58
2022-07-29T22:27:48.737Z,82.53
2022-07-29T22:30:15.754Z,82.53
2022-07-29T22:32:42.858Z,82.92
2022-07-29T22:35:09.769Z,82.73
2022-07-29T22:37:36.505Z,82.57
2022-07-29T22:40:03.751Z,82.83
2022-07-29T22:42:30.515Z,83.15
2022-07-29T22:44:57.127Z,82.88
2022-07-29T22:47:39.794Z,82.68
2022-07-29T22:50:10.453Z,82.85
2022-07-29T22:52:37.083Z,82.32
2022-07-29T22:55:05.022Z,82.89
2022-07-29T22:57:31.669Z,82.72
2022-07-29T22:59:58.367Z,83.12
2022-07-29T23:02:24.964Z,82.98
2022-07-29T23:04:51.761Z,83.55
2022-07-29T23:07:18.617Z,83.35
2022-07-29T23:09:45.218Z,83.19
2022-07-29T23:12:13.243Z,83.43
2022-07-29T23:14:39.900Z,83.64
2022-07-29T23:17:06.634Z,83.49
2022-07-29T23:19:33.267Z,83.23
2022-07-29T23:21:59.972Z,82.99
2022-07-29T23:24:26.601Z,83.37
2022-07-29T23:26:53.957Z,82.74
2022-07-29T23:29:20.720Z,82.99
2022-07-29T23:31:48.234Z,82.59
2022-07-29T23:34:15.337Z,82.49
2022-07-29T23:36:42.532Z,81.35
2022-07-29T23:39:11.398Z,81.51
2022-07-29T23:41:38.080Z,82.51
2022-07-29T23:44:05.127Z,81.93
2022-07-29T23:46:31.835Z,81.77
2022-07-29T23:48:58.604Z,82.49
2022-07-29T23:51:25.258Z,82.78
2022-07-29T23:53:53.450Z,82.86
2022-07-29T23:56:22.239Z,83.42
2022-07-29T23:58:48.909Z,83.16
